Dundee, Ohio
Current Conditions -  °F | °C
As of 10:53 AM on Thursday 30 Oct 2014 (Local Time) from KPHD Reporting Station
Clear Clear  
Wind Chill: 44°   Ceiling: Unl
Heat Index: 46°   Visibility: 10mi
Dew Point: 39°   Wind: 5mph
Humidity: 76%   Direction: 310°NW
Pressure: 30.14"   Gusts: NA
Location:  40.59°N, 81.61°W
Report Text: KPHD 301453Z AUTO 31004KT 10SM CLR 08/04 A3014 RMK AO2 SLP211 T00780039 50004
Loading
Personal Weather Stations






























Interactive Weather Map
Tropical Storm Tracking
New forecast layout! Learn more

10-Day Weather Forecast

Advertisements
Track Severe Weather on mobile